createdAt,value
2022-08-11T00:09:23.325Z,21.37
2022-08-11T00:14:33.725Z,21.32
2022-08-11T00:20:11.205Z,21.24
2022-08-11T00:24:31.161Z,21.17
2022-08-11T00:29:33.784Z,21.14
2022-08-11T00:39:39.174Z,21.04
2022-08-11T00:44:44.675Z,20.92
2022-08-11T00:49:47.383Z,20.84
2022-08-11T00:54:50.152Z,20.76
2022-08-11T01:04:55.944Z,20.66
2022-08-11T01:15:01.217Z,20.57
2022-08-11T01:20:39.537Z,20.52
2022-08-11T01:25:06.170Z,20.46
2022-08-11T01:35:11.238Z,20.34
2022-08-11T01:40:13.727Z,20.33
2022-08-11T01:45:16.422Z,20.29
2022-08-11T01:55:21.813Z,20.12
2022-08-11T02:00:24.302Z,20.08
2022-08-11T02:05:26.996Z,20.06
2022-08-11T02:10:35.236Z,20.03
2022-08-11T02:15:38.075Z,19.99
2022-08-11T02:20:40.906Z,19.96
2022-08-11T02:25:52.350Z,19.9
2022-08-11T02:30:55.038Z,19.89
2022-08-11T02:35:58.035Z,19.9
2022-08-11T02:41:09.532Z,19.91
2022-08-11T02:46:18.019Z,19.88
2022-08-11T02:51:14.591Z,19.87
2022-08-11T02:56:17.386Z,19.85
2022-08-11T03:01:20.126Z,19.81
2022-08-11T03:06:22.720Z,19.8
2022-08-11T03:16:27.940Z,19.71
2022-08-11T03:26:33.440Z,19.64
2022-08-11T03:31:36.287Z,19.61
2022-08-11T03:36:54.593Z,19.6
2022-08-11T03:41:50.066Z,19.57
2022-08-11T03:51:51.638Z,19.52
2022-08-11T03:56:52.857Z,19.5
2022-08-11T04:01:55.522Z,19.53
2022-08-11T04:07:06.903Z,19.56
2022-08-11T04:12:11.633Z,19.66
2022-08-11T04:22:17.737Z,19.86
2022-08-11T04:32:23.172Z,20.35
2022-08-11T04:37:25.917Z,20.61
2022-08-11T04:42:37.681Z,20.7
2022-08-11T04:47:31.482Z,20.85
2022-08-11T04:52:35.820Z,21.19
2022-08-11T05:02:39.961Z,21.88
2022-08-11T05:07:42.691Z,22.21
2022-08-11T05:12:45.420Z,22.34
2022-08-11T05:17:48.011Z,22.54
2022-08-11T05:22:50.935Z,22.64
2022-08-11T05:27:53.722Z,22.8
2022-08-11T05:33:01.047Z,22.94
2022-08-11T05:37:59.019Z,23.16
2022-08-11T05:43:01.555Z,23.28
2022-08-11T05:48:04.289Z,23.57
2022-08-11T05:53:08.864Z,23.83
2022-08-11T06:03:12.491Z,24.13
2022-08-11T06:08:15.106Z,24.69
2022-08-11T06:13:18.034Z,25.11
2022-08-11T06:18:20.467Z,25.27
2022-08-11T06:23:23.324Z,25.38
2022-08-11T06:28:25.976Z,25.68
2022-08-11T06:33:31.682Z,25.62
2022-08-11T06:43:40.096Z,26.52
2022-08-11T06:48:43.038Z,26.6
2022-08-11T06:53:56.439Z,26.54
2022-08-11T06:58:48.535Z,27.01
2022-08-11T07:03:51.231Z,27.26
2022-08-11T07:13:56.862Z,28.1
2022-08-11T07:18:59.792Z,28.17
2022-08-11T07:34:11.101Z,28.97
2022-08-11T07:44:14.404Z,28.88
2022-08-11T07:49:17.420Z,29.28
2022-08-11T07:54:20.268Z,29.88
2022-08-11T08:04:34.615Z,30.18
2022-08-11T08:09:37.046Z,30.32
2022-08-11T08:19:42.444Z,30.61
2022-08-11T08:24:51.169Z,29.47
2022-08-11T08:29:53.258Z,29.23
2022-08-11T08:35:01.365Z,30.75
2022-08-11T08:40:03.866Z,30.1
2022-08-11T08:45:06.575Z,29.64
2022-08-11T08:50:16.431Z,29.68
2022-08-11T08:55:17.724Z,30.05
2022-08-11T09:01:00.222Z,29.54
2022-08-11T09:06:43.257Z,30.99
2022-08-11T09:11:46.308Z,31.07
2022-08-11T09:16:49.000Z,31.08
2022-08-11T09:21:51.588Z,29.4
2022-08-11T09:31:56.896Z,29.06
2022-08-11T09:36:59.593Z,29.44
2022-08-11T09:42:03.234Z,29.28
2022-08-11T09:52:07.370Z,28.83
2022-08-11T09:57:10.511Z,30.05
2022-08-11T10:07:15.964Z,30.3
2022-08-11T10:12:18.767Z,29.38
2022-08-11T10:17:21.464Z,29.58
2022-08-11T10:22:24.173Z,29.36
2022-08-11T10:38:07.186Z,31.96
2022-08-11T10:43:02.921Z,32.27
2022-08-11T10:48:05.097Z,32.06
2022-08-11T10:53:07.451Z,30.44
2022-08-11T10:58:12.729Z,31.21
2022-08-11T11:03:22.559Z,31.19
2022-08-11T11:08:18.272Z,30.46
2022-08-11T11:13:20.619Z,29.76
2022-08-11T11:18:23.542Z,30.75
2022-08-11T11:28:29.020Z,30.99
2022-08-11T11:33:31.752Z,30.02
2022-08-11T11:43:37.032Z,29.91
2022-08-11T11:53:45.180Z,29.72
2022-08-11T11:58:47.620Z,29.6
2022-08-11T12:08:58.994Z,30.66
2022-08-11T12:19:04.339Z,30.88
2022-08-11T12:24:06.907Z,30.52
2022-08-11T12:29:09.909Z,30.45
2022-08-11T12:34:12.644Z,30.62
2022-08-11T12:39:18.171Z,31.05
2022-08-11T12:44:57.596Z,31.39
2022-08-11T12:50:00.167Z,30.17
2022-08-11T13:00:04.949Z,29.61
2022-08-11T13:05:07.605Z,29.38
2022-08-11T13:10:11.123Z,29.61
2022-08-11T13:15:13.095Z,30.26
2022-08-11T13:25:18.240Z,29.95
2022-08-11T13:35:24.255Z,29.99
2022-08-11T13:40:45.669Z,29.86
2022-08-11T13:45:29.494Z,30.06
2022-08-11T13:50:32.353Z,29.86
2022-08-11T13:55:45.139Z,30.67
2022-08-11T14:00:37.876Z,30.38
2022-08-11T14:05:40.487Z,30.36
2022-08-11T14:10:43.159Z,30.71
2022-08-11T14:15:49.591Z,31
2022-08-11T14:25:59.152Z,30.32
2022-08-11T14:31:01.097Z,30.1
2022-08-11T14:36:00.037Z,29.91
2022-08-11T14:41:02.520Z,29.93
2022-08-11T14:46:05.233Z,30.11
2022-08-11T14:51:07.813Z,29.68
2022-08-11T14:56:10.634Z,29.72
2022-08-11T15:06:15.849Z,29.86
2022-08-11T15:16:21.296Z,30.19
2022-08-11T15:21:24.130Z,30.12
2022-08-11T15:26:27.001Z,30.15
2022-08-11T15:31:29.565Z,29.98
2022-08-11T15:46:37.615Z,30.02
2022-08-11T15:51:40.437Z,29.98
2022-08-11T15:56:43.201Z,29.81
2022-08-11T16:01:45.900Z,29.73
2022-08-11T16:06:49.392Z,29.76
2022-08-11T16:11:54.051Z,29.71
2022-08-11T16:16:56.880Z,29.68
2022-08-11T16:27:12.872Z,29.57
2022-08-11T16:42:11.130Z,29.34
2022-08-11T16:52:16.559Z,29.33
2022-08-11T16:57:20.095Z,29.36
2022-08-11T17:02:22.104Z,29.44
2022-08-11T17:07:40.193Z,29.37
2022-08-11T17:17:30.357Z,29.22
2022-08-11T17:27:35.556Z,29.1
2022-08-11T17:32:56.620Z,28.93
2022-08-11T17:37:43.274Z,28.77
2022-08-11T17:42:45.885Z,28.69
2022-08-11T17:57:53.663Z,28.23
2022-08-11T18:07:58.896Z,28.01
2022-08-11T18:13:01.448Z,27.87
2022-08-11T18:23:06.591Z,27.5
2022-08-11T18:33:40.172Z,27.26
2022-08-11T18:38:16.938Z,27.18
2022-08-11T18:43:21.808Z,26.97
2022-08-11T18:48:22.328Z,26.89
2022-08-11T18:53:24.807Z,26.78
2022-08-11T18:58:27.450Z,26.76
2022-08-11T19:03:30.116Z,26.6
2022-08-11T19:08:32.440Z,26.53
2022-08-11T19:13:35.088Z,26.42
2022-08-11T19:18:37.844Z,26.29
2022-08-11T19:23:40.352Z,26.17
2022-08-11T19:28:42.896Z,26.08
2022-08-11T19:33:57.407Z,25.94
2022-08-11T19:38:48.554Z,25.86
2022-08-11T19:43:51.197Z,25.8
2022-08-11T19:53:56.649Z,25.67
2022-08-11T19:58:59.342Z,25.58
2022-08-11T20:04:01.875Z,25.6
2022-08-11T20:09:05.426Z,25.56
2022-08-11T20:14:13.860Z,25.52
2022-08-11T20:24:18.476Z,25.48
2022-08-11T20:29:20.994Z,25.41
2022-08-11T20:34:23.686Z,25.45
2022-08-11T20:39:26.347Z,25.4
2022-08-11T20:44:28.725Z,25.3
2022-08-11T20:49:33.390Z,25.17
2022-08-11T20:54:38.147Z,25.13
2022-08-11T20:59:49.289Z,25.1
2022-08-11T21:09:58.931Z,24.98
2022-08-11T21:19:54.748Z,24.88
2022-08-11T21:29:56.937Z,24.65
2022-08-11T21:34:59.793Z,24.46
2022-08-11T21:40:02.379Z,24.32
2022-08-11T21:45:04.778Z,24.18
2022-08-11T21:50:07.471Z,24.09
2022-08-11T21:55:49.690Z,23.92
2022-08-11T22:00:52.593Z,23.98
2022-08-11T22:05:55.458Z,23.87
2022-08-11T22:10:58.126Z,23.87
2022-08-11T22:16:00.851Z,23.74
2022-08-11T22:21:03.575Z,23.7
2022-08-11T22:31:08.812Z,23.52
2022-08-11T22:36:11.560Z,23.38
2022-08-11T22:41:14.214Z,23.28
2022-08-11T22:46:16.912Z,23.19
2022-08-11T22:56:22.224Z,23.02
2022-08-11T23:01:24.955Z,22.93
2022-08-11T23:06:30.336Z,22.86
2022-08-11T23:21:38.161Z,22.67
2022-08-11T23:31:43.688Z,22.66
2022-08-11T23:36:51.705Z,22.6
2022-08-11T23:41:54.177Z,22.47
2022-08-11T23:51:59.035Z,22.37
